createdAt,value
2022-08-17T00:00:17.294Z,5.55
2022-08-17T00:03:13.631Z,5.95
2022-08-17T00:05:57.338Z,5.80
2022-08-17T00:08:33.290Z,5.60
2022-08-17T00:11:02.037Z,6.07
2022-08-17T00:13:37.346Z,5.95
2022-08-17T00:16:17.359Z,5.88
2022-08-17T00:19:02.139Z,6.30
2022-08-17T00:21:56.400Z,6.38
2022-08-17T00:24:22.104Z,5.82
2022-08-17T00:26:48.964Z,5.68
2022-08-17T00:29:20.020Z,6.10
2022-08-17T00:31:47.599Z,5.80
2022-08-17T00:34:14.520Z,6.10
2022-08-17T00:36:41.398Z,6.00
2022-08-17T00:39:08.359Z,5.88
2022-08-17T00:41:35.776Z,6.00
2022-08-17T00:44:05.416Z,5.60
2022-08-17T00:46:39.188Z,6.15
2022-08-17T00:49:07.993Z,6.28
2022-08-17T00:51:43.087Z,5.72
2022-08-17T00:54:31.103Z,6.40
2022-08-17T00:57:09.091Z,6.38
2022-08-17T01:00:01.521Z,5.97
2022-08-17T01:02:51.780Z,6.63
2022-08-17T01:05:25.567Z,6.60
2022-08-17T01:07:53.610Z,6.00
2022-08-17T01:10:58.556Z,6.55
2022-08-17T01:13:18.021Z,6.55
2022-08-17T01:15:57.292Z,6.47
2022-08-17T01:18:26.262Z,6.95
2022-08-17T01:20:57.497Z,5.80
2022-08-17T01:23:28.769Z,6.38
2022-08-17T01:26:01.741Z,6.68
2022-08-17T01:28:52.664Z,7.00
2022-08-17T01:31:19.539Z,6.78
2022-08-17T01:33:46.463Z,6.85
2022-08-17T01:36:13.789Z,6.38
2022-08-17T01:38:40.769Z,6.78
2022-08-17T01:41:13.598Z,6.40
2022-08-17T01:43:48.971Z,6.40
2022-08-17T01:46:26.899Z,7.43
2022-08-17T01:48:57.373Z,7.20
2022-08-17T01:51:32.652Z,6.75
2022-08-17T01:54:06.765Z,6.57
2022-08-17T01:56:38.480Z,6.75
2022-08-17T01:59:06.352Z,6.43
2022-08-17T02:01:35.779Z,6.78
2022-08-17T02:04:04.323Z,7.32
2022-08-17T02:06:52.603Z,6.50
2022-08-17T02:09:25.498Z,6.03
2022-08-17T02:11:58.340Z,5.85
2022-08-17T02:14:26.642Z,7.13
2022-08-17T02:16:54.211Z,6.22
2022-08-17T02:19:22.219Z,6.72
2022-08-17T02:21:52.076Z,6.78
2022-08-17T02:24:58.641Z,6.55
2022-08-17T02:27:16.019Z,6.82
2022-08-17T02:29:42.920Z,6.45
2022-08-17T02:32:27.532Z,7.40
2022-08-17T02:37:24.506Z,7.22
2022-08-17T02:39:51.552Z,6.78
2022-08-17T02:42:18.545Z,6.80
2022-08-17T02:44:45.482Z,6.60
2022-08-17T02:47:12.687Z,7.03
2022-08-17T02:49:39.711Z,6.40
2022-08-17T02:52:08.037Z,7.05
2022-08-17T02:54:41.303Z,7.30
2022-08-17T02:57:10.570Z,7.30
2022-08-17T02:59:39.996Z,7.28
2022-08-17T03:02:10.571Z,7.00
2022-08-17T03:04:38.557Z,6.93
2022-08-17T03:07:06.585Z,7.38
2022-08-17T03:09:33.529Z,6.22
2022-08-17T03:12:12.099Z,6.68
2022-08-17T03:14:42.038Z,7.25
2022-08-17T03:17:11.178Z,7.60
2022-08-17T03:22:35.517Z,7.05
2022-08-17T03:24:58.096Z,7.32
2022-08-17T03:27:24.954Z,7.55
2022-08-17T03:29:51.849Z,7.53
2022-08-17T03:32:20.526Z,7.47
2022-08-17T03:34:48.012Z,7.90
2022-08-17T03:37:15.785Z,6.85
2022-08-17T03:39:42.915Z,7.93
2022-08-17T03:42:31.962Z,7.43
2022-08-17T03:45:01.541Z,7.53
2022-08-17T03:47:47.495Z,7.63
2022-08-17T03:50:40.080Z,6.97
2022-08-17T03:53:33.826Z,7.43
2022-08-17T03:56:22.917Z,7.43
2022-08-17T03:58:50.563Z,8.00
2022-08-17T04:01:18.029Z,7.70
2022-08-17T04:03:45.222Z,7.82
2022-08-17T04:06:12.088Z,8.40
2022-08-17T04:08:39.164Z,7.63
2022-08-17T04:11:06.127Z,8.25
2022-08-17T04:13:33.158Z,7.97
2022-08-17T04:16:00.183Z,8.43
2022-08-17T04:18:27.345Z,7.28
2022-08-17T04:20:54.360Z,8.10
2022-08-17T04:23:21.215Z,8.23
2022-08-17T04:25:51.246Z,8.25
2022-08-17T04:28:19.815Z,8.38
2022-08-17T04:30:48.177Z,8.10
2022-08-17T04:33:24.580Z,8.93
2022-08-17T04:35:56.107Z,9.32
2022-08-17T04:38:31.073Z,7.57
2022-08-17T04:43:48.198Z,8.32
2022-08-17T04:46:19.737Z,8.63
2022-08-17T04:48:50.811Z,8.27
2022-08-17T04:51:27.783Z,8.75
2022-08-17T04:54:05.892Z,8.10
2022-08-17T04:56:33.991Z,8.82
2022-08-17T04:59:08.937Z,8.50
2022-08-17T05:04:33.611Z,8.30
2022-08-17T05:06:56.208Z,8.63
2022-08-17T05:09:23.847Z,7.80
2022-08-17T05:11:51.364Z,8.80
2022-08-17T05:14:18.292Z,7.32
2022-08-17T05:16:48.178Z,7.88
2022-08-17T05:19:15.155Z,7.32
2022-08-17T05:21:42.138Z,8.35
2022-08-17T05:24:15.562Z,7.68
2022-08-17T05:26:56.136Z,7.25
2022-08-17T05:29:23.039Z,7.10
2022-08-17T05:32:37.999Z,6.40
2022-08-17T05:35:01.106Z,6.85
2022-08-17T05:37:28.430Z,6.88
2022-08-17T05:39:55.467Z,7.00
2022-08-17T05:42:22.715Z,7.07
2022-08-17T05:44:49.587Z,6.88
2022-08-17T05:47:18.142Z,6.60
2022-08-17T05:49:45.182Z,6.15
2022-08-17T05:52:53.214Z,6.35
2022-08-17T05:55:45.684Z,6.28
2022-08-17T05:58:42.366Z,5.82
2022-08-17T06:01:24.424Z,6.10
2022-08-17T06:04:34.438Z,5.70
2022-08-17T06:07:21.587Z,6.40
2022-08-17T06:10:12.083Z,6.10
2022-08-17T06:13:00.297Z,6.65
2022-08-17T06:15:33.209Z,6.38
2022-08-17T06:18:07.795Z,7.30
2022-08-17T06:20:54.819Z,6.53
2022-08-17T06:23:41.375Z,6.30
2022-08-17T06:26:39.662Z,6.32
2022-08-17T06:29:35.338Z,6.35
2022-08-17T06:32:06.135Z,6.43
2022-08-17T06:34:33.988Z,6.57
2022-08-17T06:37:35.512Z,6.53
2022-08-17T06:41:00.589Z,6.10
2022-08-17T06:43:49.154Z,5.97
2022-08-17T06:46:23.977Z,6.05
2022-08-17T06:49:25.820Z,5.50
2022-08-17T06:52:07.951Z,5.00
2022-08-17T06:55:01.736Z,5.43
2022-08-17T06:57:32.985Z,4.47
2022-08-17T07:00:12.465Z,5.15
2022-08-17T07:03:06.183Z,4.60
2022-08-17T07:05:42.264Z,4.43
2022-08-17T07:08:35.545Z,5.07
2022-08-17T07:11:12.977Z,4.88
2022-08-17T07:14:25.073Z,4.40
2022-08-17T07:17:00.010Z,4.35
2022-08-17T07:19:36.368Z,4.55
2022-08-17T07:22:15.221Z,4.45
2022-08-17T07:24:55.875Z,4.90
2022-08-17T07:27:43.056Z,5.00
2022-08-17T07:30:22.716Z,4.38
2022-08-17T07:33:15.345Z,4.70
2022-08-17T07:35:44.882Z,4.53
2022-08-17T07:38:26.902Z,5.07
2022-08-17T07:40:57.599Z,5.30
2022-08-17T07:43:39.171Z,5.35
2022-08-17T07:47:06.607Z,4.97
2022-08-17T07:49:47.375Z,5.22
2022-08-17T07:52:51.998Z,5.35
2022-08-17T07:55:34.726Z,6.13
2022-08-17T07:58:01.975Z,5.40
2022-08-17T08:00:32.259Z,5.53
2022-08-17T08:03:23.707Z,5.68
2022-08-17T08:06:01.312Z,6.10
2022-08-17T08:08:31.004Z,5.45
2022-08-17T08:11:38.353Z,6.38
2022-08-17T08:14:42.227Z,7.13
2022-08-17T08:17:10.090Z,7.13
2022-08-17T08:19:37.103Z,7.47
2022-08-17T08:22:36.878Z,6.78
2022-08-17T08:25:32.716Z,7.60
2022-08-17T08:28:39.694Z,8.43
2022-08-17T08:31:42.350Z,7.57
2022-08-17T08:34:58.908Z,8.45
2022-08-17T08:38:18.159Z,7.80
2022-08-17T08:41:20.682Z,8.88
2022-08-17T08:44:09.042Z,7.95
2022-08-17T08:47:09.074Z,8.75
2022-08-17T08:50:37.039Z,7.95
2022-08-17T08:53:48.591Z,8.32
2022-08-17T08:56:58.995Z,8.35
2022-08-17T09:00:06.193Z,7.68
2022-08-17T09:02:54.667Z,7.65
2022-08-17T09:05:58.566Z,9.57
2022-08-17T09:08:53.265Z,10.27
2022-08-17T09:12:02.082Z,10.40
2022-08-17T09:14:47.833Z,10.02
2022-08-17T09:17:39.062Z,9.98
2022-08-17T09:21:05.894Z,9.13
2022-08-17T09:23:45.212Z,9.82
2022-08-17T09:26:23.599Z,10.02
2022-08-17T09:28:59.101Z,9.48
2022-08-17T09:31:49.181Z,8.40
2022-08-17T09:34:32.075Z,9.50
2022-08-17T09:37:24.550Z,9.05
2022-08-17T09:40:25.607Z,9.35
2022-08-17T09:43:13.025Z,9.70
2022-08-17T09:45:51.007Z,10.63
2022-08-17T09:48:27.528Z,10.68
2022-08-17T09:51:21.270Z,11.00
2022-08-17T09:53:49.948Z,10.27
2022-08-17T09:56:34.839Z,10.45
2022-08-17T09:59:28.219Z,10.10
2022-08-17T10:02:58.953Z,9.07
2022-08-17T10:06:21.981Z,10.23
2022-08-17T10:09:38.706Z,10.07
2022-08-17T10:12:31.350Z,10.10
2022-08-17T10:15:42.805Z,11.90
2022-08-17T10:18:37.607Z,11.20
2022-08-17T10:21:30.852Z,10.40
2022-08-17T10:24:33.267Z,10.90
2022-08-17T10:27:07.467Z,11.63
2022-08-17T10:29:48.876Z,11.38
2022-08-17T10:32:38.602Z,11.77
2022-08-17T10:35:39.200Z,14.57
2022-08-17T10:38:37.109Z,15.00
2022-08-17T10:41:57.950Z,16.85
2022-08-17T10:45:06.348Z,18.38
2022-08-17T10:48:26.461Z,19.23
2022-08-17T10:50:56.101Z,18.50
2022-08-17T10:53:51.112Z,19.95
2022-08-17T10:56:22.283Z,20.25
2022-08-17T10:58:59.495Z,19.13
2022-08-17T11:01:32.642Z,18.85
2022-08-17T11:04:17.518Z,19.95
2022-08-17T11:07:25.798Z,19.30
2022-08-17T11:10:36.279Z,21.50
2022-08-17T11:13:23.412Z,23.25
2022-08-17T11:16:07.687Z,22.60
2022-08-17T11:22:12.508Z,23.33
2022-08-17T11:24:47.827Z,24.45
2022-08-17T11:27:35.921Z,24.52
2022-08-17T11:30:13.639Z,24.45
2022-08-17T11:32:52.903Z,25.27
2022-08-17T11:35:21.969Z,26.90
2022-08-17T11:38:42.954Z,26.00
2022-08-17T11:42:20.285Z,27.88
2022-08-17T11:44:59.301Z,28.45
2022-08-17T11:48:26.545Z,29.98
2022-08-17T11:51:24.861Z,28.98
2022-08-17T11:54:14.785Z,30.60
2022-08-17T11:56:51.036Z,30.65
2022-08-17T11:59:33.515Z,31.13
2022-08-17T12:02:35.153Z,32.05
2022-08-17T12:05:12.331Z,31.45
2022-08-17T12:07:52.468Z,33.65
2022-08-17T12:10:31.896Z,34.90
2022-08-17T12:13:06.939Z,33.75
2022-08-17T12:15:43.230Z,35.20
2022-08-17T12:18:28.407Z,36.03
2022-08-17T12:21:40.205Z,35.03
2022-08-17T12:24:42.739Z,33.22
2022-08-17T12:27:13.271Z,34.42
2022-08-17T12:29:45.141Z,35.78
2022-08-17T12:32:20.582Z,34.72
2022-08-17T12:34:51.393Z,37.42
2022-08-17T12:37:24.547Z,34.60
2022-08-17T12:39:59.928Z,37.08
2022-08-17T12:42:40.359Z,36.28
2022-08-17T12:45:25.246Z,32.53
2022-08-17T12:48:13.429Z,33.55
2022-08-17T12:50:45.775Z,32.97
2022-08-17T12:53:24.622Z,35.22
2022-08-17T12:55:53.727Z,34.38
2022-08-17T12:58:31.825Z,36.22
2022-08-17T13:01:14.032Z,35.20
2022-08-17T13:03:52.343Z,36.47
2022-08-17T13:06:36.771Z,37.03
2022-08-17T13:09:35.316Z,35.67
2022-08-17T13:12:09.224Z,34.95
2022-08-17T13:14:36.365Z,36.05
2022-08-17T13:17:08.593Z,34.72
2022-08-17T13:19:50.699Z,33.42
2022-08-17T13:22:23.904Z,33.85
2022-08-17T13:25:00.704Z,36.03
2022-08-17T13:27:30.142Z,34.67
2022-08-17T13:30:02.237Z,32.22
2022-08-17T13:32:39.941Z,31.23
2022-08-17T13:35:36.457Z,30.70
2022-08-17T13:38:09.134Z,30.88
2022-08-17T13:40:41.580Z,31.60
2022-08-17T13:43:10.292Z,30.77
2022-08-17T13:45:50.662Z,30.83
2022-08-17T13:48:36.894Z,31.70
2022-08-17T13:51:32.181Z,32.75
2022-08-17T13:54:03.878Z,33.88
2022-08-17T13:56:44.693Z,35.63
2022-08-17T13:59:53.170Z,32.05
2022-08-17T14:02:16.925Z,33.80
2022-08-17T14:04:47.146Z,38.20
2022-08-17T14:07:15.303Z,35.15
2022-08-17T14:10:13.599Z,37.50
2022-08-17T14:12:43.385Z,37.80
2022-08-17T14:15:13.990Z,35.88
2022-08-17T14:17:40.968Z,37.08
2022-08-17T14:20:12.860Z,38.08
2022-08-17T14:22:49.326Z,36.40
2022-08-17T14:25:21.594Z,36.13
2022-08-17T14:27:52.924Z,38.72
2022-08-17T14:30:29.658Z,35.83
2022-08-17T14:33:00.242Z,35.03
2022-08-17T14:35:31.467Z,33.33
2022-08-17T14:37:58.484Z,36.63
2022-08-17T14:40:25.775Z,36.15
2022-08-17T14:42:55.745Z,34.47
2022-08-17T14:45:30.172Z,35.00
2022-08-17T14:47:59.713Z,33.90
2022-08-17T14:50:27.121Z,34.58
2022-08-17T14:52:56.540Z,32.85
2022-08-17T14:55:30.874Z,30.85
2022-08-17T14:57:58.331Z,33.50
2022-08-17T15:00:27.025Z,31.70
2022-08-17T15:02:58.665Z,32.45
2022-08-17T15:05:31.820Z,28.83
2022-08-17T15:08:03.156Z,31.55
2022-08-17T15:10:31.499Z,30.98
2022-08-17T15:13:00.257Z,30.77
2022-08-17T15:15:38.107Z,29.95
2022-08-17T15:18:08.377Z,29.60
2022-08-17T15:20:36.129Z,29.27
2022-08-17T15:27:32.532Z,28.70
2022-08-17T15:30:15.166Z,28.92
2022-08-17T15:33:44.539Z,26.60
2022-08-17T15:36:37.697Z,26.30
2022-08-17T15:39:15.163Z,22.58
2022-08-17T15:41:58.774Z,24.02
2022-08-17T15:44:41.055Z,21.73
2022-08-17T15:52:41.084Z,19.20
2022-08-17T15:55:15.683Z,22.17
2022-08-17T15:57:49.625Z,19.98
2022-08-17T16:00:19.739Z,22.25
2022-08-17T16:03:58.058Z,18.15
2022-08-17T16:10:21.154Z,23.25
2022-08-17T16:12:50.252Z,23.27
2022-08-17T16:15:18.302Z,26.25
2022-08-17T16:17:45.392Z,25.10
2022-08-17T16:20:19.564Z,27.85
2022-08-17T16:22:49.812Z,27.83
2022-08-17T16:25:38.860Z,27.73
2022-08-17T16:28:17.476Z,27.20
2022-08-17T16:30:45.449Z,27.70
2022-08-17T16:33:12.719Z,26.58
2022-08-17T16:35:39.910Z,28.73
2022-08-17T16:38:07.273Z,29.42
2022-08-17T16:40:35.793Z,27.75
2022-08-17T16:43:11.979Z,26.98
2022-08-17T16:45:40.843Z,29.52
2022-08-17T16:48:09.502Z,27.77
2022-08-17T16:50:37.264Z,26.98
2022-08-17T16:53:17.838Z,30.88
2022-08-17T16:55:46.604Z,29.73
2022-08-17T16:58:14.474Z,30.20
2022-08-17T17:00:44.129Z,29.15
2022-08-17T17:03:22.100Z,28.38
2022-08-17T17:06:16.191Z,28.35
2022-08-17T17:08:59.124Z,30.00
2022-08-17T17:11:34.248Z,29.83
2022-08-17T17:14:11.636Z,29.40
2022-08-17T17:17:01.616Z,30.10
2022-08-17T17:19:45.564Z,30.23
2022-08-17T17:22:25.798Z,30.33
2022-08-17T17:25:17.544Z,30.48
2022-08-17T17:28:02.599Z,32.13
2022-08-17T17:34:03.987Z,30.20
2022-08-17T17:40:05.631Z,29.45
2022-08-17T17:42:33.491Z,29.77
2022-08-17T17:45:23.507Z,24.35
2022-08-17T17:47:50.880Z,23.88
2022-08-17T17:50:21.313Z,25.45
2022-08-17T17:53:04.289Z,26.77
2022-08-17T17:55:40.928Z,25.13
2022-08-17T17:58:37.221Z,24.05
2022-08-17T18:01:10.382Z,25.48
2022-08-17T18:04:20.681Z,25.50
2022-08-17T18:07:01.335Z,24.48
2022-08-17T18:09:51.997Z,23.58
2022-08-17T18:13:15.404Z,22.63
2022-08-17T18:15:53.986Z,20.75
2022-08-17T18:18:39.429Z,19.30
2022-08-17T18:21:21.420Z,19.42
2022-08-17T18:23:56.503Z,18.88
2022-08-17T18:26:41.929Z,16.95
2022-08-17T18:29:34.298Z,15.85
2022-08-17T18:32:29.315Z,16.33
2022-08-17T18:35:19.243Z,17.20
2022-08-17T18:38:21.174Z,16.77
2022-08-17T18:41:02.102Z,17.55
2022-08-17T18:43:44.044Z,16.30
2022-08-17T18:46:35.063Z,18.33
2022-08-17T18:49:08.520Z,18.48
2022-08-17T18:51:42.759Z,17.45
2022-08-17T18:56:54.172Z,16.35
2022-08-17T18:59:43.652Z,17.35
2022-08-17T19:02:23.193Z,16.73
2022-08-17T19:05:24.825Z,22.73
2022-08-17T19:07:52.266Z,17.00
2022-08-17T19:10:31.668Z,17.17
2022-08-17T19:13:12.281Z,17.40
2022-08-17T19:16:15.977Z,18.27
2022-08-17T19:18:55.957Z,18.92
2022-08-17T19:21:43.197Z,20.00
2022-08-17T19:24:24.874Z,18.83
2022-08-17T19:27:13.705Z,19.08
2022-08-17T19:30:04.000Z,20.50
2022-08-17T19:32:35.979Z,20.58
2022-08-17T19:35:06.604Z,21.67
2022-08-17T19:38:13.342Z,21.85
2022-08-17T19:41:13.384Z,24.10
2022-08-17T19:44:06.905Z,21.83
2022-08-17T19:47:00.663Z,22.77
2022-08-17T19:50:07.971Z,22.60
2022-08-17T19:53:10.999Z,22.13
2022-08-17T19:55:57.586Z,25.98
2022-08-17T19:59:04.625Z,24.83
2022-08-17T20:01:53.409Z,24.20
2022-08-17T20:04:32.305Z,25.25
2022-08-17T20:07:17.660Z,25.30
2022-08-17T20:09:54.641Z,22.88
2022-08-17T20:12:31.320Z,24.25
2022-08-17T20:15:20.663Z,26.38
2022-08-17T20:17:48.758Z,27.70
2022-08-17T20:20:34.923Z,29.40
2022-08-17T20:23:32.528Z,29.55
2022-08-17T20:26:49.125Z,27.00
2022-08-17T20:29:39.749Z,23.77
2022-08-17T20:32:26.714Z,29.23
2022-08-17T20:35:18.116Z,28.15
2022-08-17T20:38:05.341Z,28.48
2022-08-17T20:41:03.792Z,27.75
2022-08-17T20:43:33.388Z,26.00
2022-08-17T20:46:09.291Z,26.15
2022-08-17T20:48:42.858Z,29.90
2022-08-17T20:51:29.517Z,29.77
2022-08-17T20:54:07.686Z,31.05
2022-08-17T20:56:58.513Z,26.88
2022-08-17T20:59:25.663Z,29.17
2022-08-17T21:02:18.128Z,28.77
2022-08-17T21:05:37.640Z,28.10
2022-08-17T21:08:57.501Z,27.92
2022-08-17T21:11:56.919Z,29.02
2022-08-17T21:14:37.938Z,31.27
2022-08-17T21:18:00.606Z,31.40
2022-08-17T21:20:50.384Z,29.15
2022-08-17T21:23:48.442Z,33.10
2022-08-17T21:26:34.482Z,33.35
2022-08-17T21:29:30.831Z,32.80
2022-08-17T21:31:59.545Z,35.30
2022-08-17T21:34:44.805Z,32.38
2022-08-17T21:37:22.181Z,30.50
2022-08-17T21:40:12.670Z,35.10
2022-08-17T21:42:48.843Z,36.20
2022-08-17T21:45:32.151Z,33.78
2022-08-17T21:48:20.920Z,36.92
2022-08-17T21:51:10.201Z,35.05
2022-08-17T21:53:47.689Z,38.58
2022-08-17T21:56:26.812Z,37.03
2022-08-17T21:59:16.109Z,37.30
2022-08-17T22:01:43.260Z,39.20
2022-08-17T22:04:11.196Z,37.33
2022-08-17T22:06:43.098Z,36.78
2022-08-17T22:09:31.450Z,37.45
2022-08-17T22:12:15.917Z,39.80
2022-08-17T22:14:52.648Z,40.40
2022-08-17T22:17:29.820Z,39.83
2022-08-17T22:20:05.610Z,35.97
2022-08-17T22:23:40.052Z,41.25
2022-08-17T22:26:12.768Z,40.42
2022-08-17T22:28:50.781Z,40.20
2022-08-17T22:32:00.884Z,40.45
2022-08-17T22:34:27.879Z,40.22
2022-08-17T22:37:28.762Z,39.88
2022-08-17T22:39:59.468Z,39.25
2022-08-17T22:42:28.445Z,39.38
2022-08-17T22:44:55.315Z,40.55
2022-08-17T22:47:40.763Z,36.65
2022-08-17T22:50:27.188Z,38.45
2022-08-17T22:53:38.186Z,35.67
2022-08-17T22:56:25.016Z,38.63
2022-08-17T22:59:16.262Z,37.63
2022-08-17T23:02:04.732Z,36.35
2022-08-17T23:04:36.693Z,39.08
2022-08-17T23:07:03.868Z,39.88
2022-08-17T23:09:30.834Z,37.08
2022-08-17T23:12:07.411Z,39.05
2022-08-17T23:14:42.391Z,37.63
2022-08-17T23:17:09.266Z,38.47
2022-08-17T23:19:36.327Z,37.75
2022-08-17T23:22:08.014Z,38.60
2022-08-17T23:24:43.459Z,39.03
2022-08-17T23:27:11.796Z,40.08
2022-08-17T23:29:41.290Z,34.13
2022-08-17T23:32:13.431Z,32.15
2022-08-17T23:34:44.000Z,38.85
2022-08-17T23:37:12.138Z,37.92
2022-08-17T23:39:39.954Z,37.88
2022-08-17T23:42:11.075Z,37.95
2022-08-17T23:44:40.936Z,36.78
2022-08-17T23:47:08.039Z,37.33
2022-08-17T23:49:36.212Z,31.63
2022-08-17T23:52:09.788Z,34.00
2022-08-17T23:54:43.727Z,36.35
2022-08-17T23:57:14.442Z,33.40
2022-08-17T23:59:43.724Z,36.78
